sensor_id;sensor_type;location;lat;lon;timestamp;temperature;humidity
65404;DHT22;52014;52.088;5.096;2023-02-27T00:00:24;3.70;99.90
65404;DHT22;52014;52.088;5.096;2023-02-27T00:02:50;3.70;99.90
65404;DHT22;52014;52.088;5.096;2023-02-27T00:05:16;3.70;99.90
65404;DHT22;52014;52.088;5.096;2023-02-27T00:07:42;3.70;99.90
65404;DHT22;52014;52.088;5.096;2023-02-27T00:10:07;3.60;99.90
65404;DHT22;52014;52.088;5.096;2023-02-27T00:12:33;3.60;99.90
65404;DHT22;52014;52.088;5.096;2023-02-27T00:15:03;3.60;99.90
65404;DHT22;52014;52.088;5.096;2023-02-27T00:17:28;3.60;99.90
65404;DHT22;52014;52.088;5.096;2023-02-27T00:19:54;3.60;99.90
65404;DHT22;52014;52.088;5.096;2023-02-27T00:22:20;3.60;99.90
65404;DHT22;52014;52.088;5.096;2023-02-27T00:24:45;3.60;99.90
65404;DHT22;52014;52.088;5.096;2023-02-27T00:27:10;3.60;99.90
65404;DHT22;52014;52.088;5.096;2023-02-27T00:29:36;3.50;99.90
65404;DHT22;52014;52.088;5.096;2023-02-27T00:32:02;3.50;99.90
65404;DHT22;52014;52.088;5.096;2023-02-27T00:34:27;3.50;99.90
65404;DHT22;52014;52.088;5.096;2023-02-27T00:36:53;3.40;99.90
65404;DHT22;52014;52.088;5.096;2023-02-27T00:39:18;3.50;99.90
65404;DHT22;52014;52.088;5.096;2023-02-27T00:41:43;3.40;99.90
65404;DHT22;52014;52.088;5.096;2023-02-27T00:44:09;3.40;99.90
65404;DHT22;52014;52.088;5.096;2023-02-27T00:46:34;3.40;99.90
65404;DHT22;52014;52.088;5.096;2023-02-27T00:49:00;3.40;99.90
65404;DHT22;52014;52.088;5.096;2023-02-27T00:51:25;3.40;99.90
65404;DHT22;52014;52.088;5.096;2023-02-27T00:53:51;3.30;99.90
65404;DHT22;52014;52.088;5.096;2023-02-27T00:56:16;3.30;99.90
65404;DHT22;52014;52.088;5.096;2023-02-27T00:58:42;3.30;99.90
65404;DHT22;52014;52.088;5.096;2023-02-27T01:01:07;3.30;99.90
65404;DHT22;52014;52.088;5.096;2023-02-27T01:03:33;3.30;99.90
65404;DHT22;52014;52.088;5.096;2023-02-27T01:05:58;3.30;99.90
65404;DHT22;52014;52.088;5.096;2023-02-27T01:08:23;3.30;99.90
65404;DHT22;52014;52.088;5.096;2023-02-27T01:10:49;3.30;99.90
65404;DHT22;52014;52.088;5.096;2023-02-27T01:13:14;3.30;99.90
65404;DHT22;52014;52.088;5.096;2023-02-27T01:15:40;3.30;99.90
65404;DHT22;52014;52.088;5.096;2023-02-27T01:18:05;3.40;99.90
65404;DHT22;52014;52.088;5.096;2023-02-27T01:20:31;3.30;99.90
65404;DHT22;52014;52.088;5.096;2023-02-27T01:22:56;3.30;99.90
65404;DHT22;52014;52.088;5.096;2023-02-27T01:25:21;3.20;99.90
65404;DHT22;52014;52.088;5.096;2023-02-27T01:27:47;3.20;99.90
65404;DHT22;52014;52.088;5.096;2023-02-27T01:30:12;3.30;99.90
65404;DHT22;52014;52.088;5.096;2023-02-27T01:32:40;3.30;99.90
65404;DHT22;52014;52.088;5.096;2023-02-27T01:35:06;3.30;99.90
65404;DHT22;52014;52.088;5.096;2023-02-27T01:37:32;3.20;99.90
65404;DHT22;52014;52.088;5.096;2023-02-27T01:39:57;3.20;99.90
65404;DHT22;52014;52.088;5.096;2023-02-27T01:42:23;3.20;99.90
65404;DHT22;52014;52.088;5.096;2023-02-27T01:45:08;3.20;99.90
65404;DHT22;52014;52.088;5.096;2023-02-27T01:47:34;3.30;99.90
65404;DHT22;52014;52.088;5.096;2023-02-27T01:50:00;3.20;99.90
65404;DHT22;52014;52.088;5.096;2023-02-27T01:52:25;3.20;99.90
65404;DHT22;52014;52.088;5.096;2023-02-27T01:54:51;3.20;99.90
65404;DHT22;52014;52.088;5.096;2023-02-27T01:57:16;3.10;99.90
65404;DHT22;52014;52.088;5.096;2023-02-27T01:59:42;3.00;99.90
65404;DHT22;52014;52.088;5.096;2023-02-27T02:02:11;3.00;99.90
65404;DHT22;52014;52.088;5.096;2023-02-27T02:04:38;3.10;99.90
65404;DHT22;52014;52.088;5.096;2023-02-27T02:07:06;3.10;99.90
65404;DHT22;52014;52.088;5.096;2023-02-27T02:09:33;3.00;99.90
65404;DHT22;52014;52.088;5.096;2023-02-27T02:12:00;3.00;99.90
65404;DHT22;52014;52.088;5.096;2023-02-27T02:14:25;3.10;99.90
65404;DHT22;52014;52.088;5.096;2023-02-27T02:16:58;3.10;99.90
65404;DHT22;52014;52.088;5.096;2023-02-27T02:22:04;3.00;99.90
65404;DHT22;52014;52.088;5.096;2023-02-27T02:24:39;3.00;99.90
65404;DHT22;52014;52.088;5.096;2023-02-27T02:32:25;2.90;99.90
65404;DHT22;52014;52.088;5.096;2023-02-27T02:42:35;2.80;99.90
65404;DHT22;52014;52.088;5.096;2023-02-27T02:45:12;2.90;99.90
65404;DHT22;52014;52.088;5.096;2023-02-27T02:52:50;2.80;99.90
65404;DHT22;52014;52.088;5.096;2023-02-27T03:00:19;2.80;99.90
65404;DHT22;52014;52.088;5.096;2023-02-27T03:02:54;2.80;99.90
65404;DHT22;52014;52.088;5.096;2023-02-27T03:05:25;2.80;99.90
65404;DHT22;52014;52.088;5.096;2023-02-27T03:07:53;2.70;99.90
65404;DHT22;52014;52.088;5.096;2023-02-27T03:10:32;2.70;99.90
65404;DHT22;52014;52.088;5.096;2023-02-27T03:13:01;2.70;99.90
65404;DHT22;52014;52.088;5.096;2023-02-27T03:15:28;2.70;99.90
65404;DHT22;52014;52.088;5.096;2023-02-27T03:17:59;2.70;99.90
65404;DHT22;52014;52.088;5.096;2023-02-27T03:20:31;2.70;99.90
65404;DHT22;52014;52.088;5.096;2023-02-27T03:22:58;2.60;99.90
65404;DHT22;52014;52.088;5.096;2023-02-27T03:25:25;2.60;99.90
65404;DHT22;52014;52.088;5.096;2023-02-27T03:27:54;2.60;99.90
65404;DHT22;52014;52.088;5.096;2023-02-27T03:30:26;2.50;99.90
65404;DHT22;52014;52.088;5.096;2023-02-27T03:35:21;2.50;99.90
65404;DHT22;52014;52.088;5.096;2023-02-27T03:37:57;2.50;99.90
65404;DHT22;52014;52.088;5.096;2023-02-27T03:40:26;2.50;99.90
65404;DHT22;52014;52.088;5.096;2023-02-27T03:48:08;2.50;99.90
65404;DHT22;52014;52.088;5.096;2023-02-27T03:50:34;2.50;99.90
65404;DHT22;52014;52.088;5.096;2023-02-27T03:53:00;2.50;99.90
65404;DHT22;52014;52.088;5.096;2023-02-27T03:55:29;2.50;99.90
65404;DHT22;52014;52.088;5.096;2023-02-27T03:57:57;2.50;99.90
65404;DHT22;52014;52.088;5.096;2023-02-27T04:00:23;2.40;99.90
65404;DHT22;52014;52.088;5.096;2023-02-27T04:02:49;2.40;99.90
65404;DHT22;52014;52.088;5.096;2023-02-27T04:05:16;2.40;99.90
65404;DHT22;52014;52.088;5.096;2023-02-27T04:18:08;2.30;99.90
65404;DHT22;52014;52.088;5.096;2023-02-27T04:20:58;2.20;99.90
65404;DHT22;52014;52.088;5.096;2023-02-27T04:26:29;2.30;99.90
65404;DHT22;52014;52.088;5.096;2023-02-27T04:31:28;2.20;99.90
65404;DHT22;52014;52.088;5.096;2023-02-27T04:34:14;2.20;99.90
65404;DHT22;52014;52.088;5.096;2023-02-27T04:36:58;2.20;99.90
65404;DHT22;52014;52.088;5.096;2023-02-27T04:39:27;2.20;99.90
65404;DHT22;52014;52.088;5.096;2023-02-27T04:41:56;2.20;99.90
65404;DHT22;52014;52.088;5.096;2023-02-27T04:44:23;2.20;99.90
65404;DHT22;52014;52.088;5.096;2023-02-27T04:46:49;2.10;99.90
65404;DHT22;52014;52.088;5.096;2023-02-27T04:51:44;2.10;99.90
65404;DHT22;52014;52.088;5.096;2023-02-27T04:54:12;2.10;99.90
65404;DHT22;52014;52.088;5.096;2023-02-27T04:56:43;2.10;99.90
65404;DHT22;52014;52.088;5.096;2023-02-27T04:59:20;2.10;99.90
65404;DHT22;52014;52.088;5.096;2023-02-27T05:01:55;2.10;99.90
65404;DHT22;52014;52.088;5.096;2023-02-27T05:04:21;2.10;99.90
65404;DHT22;52014;52.088;5.096;2023-02-27T05:06:49;2.10;99.90
65404;DHT22;52014;52.088;5.096;2023-02-27T05:11:53;2.10;99.90
65404;DHT22;52014;52.088;5.096;2023-02-27T05:19:30;2.00;99.90
65404;DHT22;52014;52.088;5.096;2023-02-27T05:22:02;2.00;99.90
65404;DHT22;52014;52.088;5.096;2023-02-27T05:24:39;2.00;99.90
65404;DHT22;52014;52.088;5.096;2023-02-27T05:27:15;2.00;99.90
65404;DHT22;52014;52.088;5.096;2023-02-27T05:29:53;2.00;99.90
65404;DHT22;52014;52.088;5.096;2023-02-27T05:35:00;2.00;99.90
65404;DHT22;52014;52.088;5.096;2023-02-27T05:37:33;1.90;99.90
65404;DHT22;52014;52.088;5.096;2023-02-27T05:40:00;1.90;99.90
65404;DHT22;52014;52.088;5.096;2023-02-27T05:42:32;1.90;99.90
65404;DHT22;52014;52.088;5.096;2023-02-27T05:45:12;1.90;99.90
65404;DHT22;52014;52.088;5.096;2023-02-27T05:47:40;1.90;99.90
65404;DHT22;52014;52.088;5.096;2023-02-27T05:50:08;1.90;99.90
65404;DHT22;52014;52.088;5.096;2023-02-27T05:52:35;1.90;99.90
65404;DHT22;52014;52.088;5.096;2023-02-27T05:57:46;1.90;99.90
65404;DHT22;52014;52.088;5.096;2023-02-27T06:00:13;1.90;99.90
65404;DHT22;52014;52.088;5.096;2023-02-27T06:02:40;1.90;99.90
65404;DHT22;52014;52.088;5.096;2023-02-27T06:05:06;1.90;99.90
65404;DHT22;52014;52.088;5.096;2023-02-27T06:07:32;1.90;99.90
65404;DHT22;52014;52.088;5.096;2023-02-27T06:09:58;1.90;99.90
65404;DHT22;52014;52.088;5.096;2023-02-27T06:12:24;1.80;99.90
65404;DHT22;52014;52.088;5.096;2023-02-27T06:14:49;1.90;99.90
65404;DHT22;52014;52.088;5.096;2023-02-27T06:17:16;1.90;99.90
65404;DHT22;52014;52.088;5.096;2023-02-27T06:19:41;1.80;99.90
65404;DHT22;52014;52.088;5.096;2023-02-27T06:22:07;1.80;99.90
65404;DHT22;52014;52.088;5.096;2023-02-27T06:24:33;1.80;99.90
65404;DHT22;52014;52.088;5.096;2023-02-27T06:26:59;1.80;99.90
65404;DHT22;52014;52.088;5.096;2023-02-27T06:29:24;1.90;99.90
65404;DHT22;52014;52.088;5.096;2023-02-27T06:31:49;1.90;99.90
65404;DHT22;52014;52.088;5.096;2023-02-27T06:34:15;1.90;99.90
65404;DHT22;52014;52.088;5.096;2023-02-27T06:36:40;1.80;99.90
65404;DHT22;52014;52.088;5.096;2023-02-27T06:39:06;1.80;99.90
65404;DHT22;52014;52.088;5.096;2023-02-27T06:41:31;1.90;99.90
65404;DHT22;52014;52.088;5.096;2023-02-27T06:43:57;1.80;99.90
65404;DHT22;52014;52.088;5.096;2023-02-27T06:46:23;1.80;99.90
65404;DHT22;52014;52.088;5.096;2023-02-27T06:48:48;1.80;99.90
65404;DHT22;52014;52.088;5.096;2023-02-27T06:51:14;1.80;99.90
65404;DHT22;52014;52.088;5.096;2023-02-27T06:53:39;1.90;99.90
65404;DHT22;52014;52.088;5.096;2023-02-27T06:56:05;1.90;99.90
65404;DHT22;52014;52.088;5.096;2023-02-27T06:58:30;1.90;99.90
65404;DHT22;52014;52.088;5.096;2023-02-27T07:00:57;1.90;99.90
65404;DHT22;52014;52.088;5.096;2023-02-27T07:03:22;1.90;99.90
65404;DHT22;52014;52.088;5.096;2023-02-27T07:05:48;1.80;99.90
65404;DHT22;52014;52.088;5.096;2023-02-27T07:08:14;1.80;99.90
65404;DHT22;52014;52.088;5.096;2023-02-27T07:10:42;1.90;99.90
65404;DHT22;52014;52.088;5.096;2023-02-27T07:13:08;1.90;99.90
65404;DHT22;52014;52.088;5.096;2023-02-27T07:15:33;1.90;99.90
65404;DHT22;52014;52.088;5.096;2023-02-27T07:17:59;1.90;99.90
65404;DHT22;52014;52.088;5.096;2023-02-27T07:20:24;2.00;99.90
65404;DHT22;52014;52.088;5.096;2023-02-27T07:22:50;2.10;99.90
65404;DHT22;52014;52.088;5.096;2023-02-27T07:25:15;2.10;99.90
65404;DHT22;52014;52.088;5.096;2023-02-27T07:27:40;2.10;99.90
65404;DHT22;52014;52.088;5.096;2023-02-27T07:30:08;2.10;99.90
65404;DHT22;52014;52.088;5.096;2023-02-27T07:32:34;2.20;99.90
65404;DHT22;52014;52.088;5.096;2023-02-27T07:35:00;2.20;99.90
65404;DHT22;52014;52.088;5.096;2023-02-27T07:37:25;2.30;99.90
65404;DHT22;52014;52.088;5.096;2023-02-27T07:39:51;2.20;99.90
65404;DHT22;52014;52.088;5.096;2023-02-27T07:42:16;2.30;99.90
65404;DHT22;52014;52.088;5.096;2023-02-27T07:44:42;2.30;99.90
65404;DHT22;52014;52.088;5.096;2023-02-27T07:47:07;2.50;99.90
65404;DHT22;52014;52.088;5.096;2023-02-27T07:49:33;2.50;99.90
65404;DHT22;52014;52.088;5.096;2023-02-27T07:51:58;2.50;99.90
65404;DHT22;52014;52.088;5.096;2023-02-27T07:54:24;2.50;99.90
65404;DHT22;52014;52.088;5.096;2023-02-27T07:56:49;2.60;99.90
65404;DHT22;52014;52.088;5.096;2023-02-27T07:59:14;2.70;99.90
65404;DHT22;52014;52.088;5.096;2023-02-27T08:01:40;2.80;99.90
65404;DHT22;52014;52.088;5.096;2023-02-27T08:04:05;2.80;99.90
65404;DHT22;52014;52.088;5.096;2023-02-27T08:06:31;3.10;99.90
65404;DHT22;52014;52.088;5.096;2023-02-27T08:08:56;3.20;99.90
65404;DHT22;52014;52.088;5.096;2023-02-27T08:11:22;3.20;99.90
65404;DHT22;52014;52.088;5.096;2023-02-27T08:13:47;3.10;99.90
65404;DHT22;52014;52.088;5.096;2023-02-27T08:16:14;3.10;99.90
65404;DHT22;52014;52.088;5.096;2023-02-27T08:18:39;3.10;99.90
65404;DHT22;52014;52.088;5.096;2023-02-27T08:21:05;3.20;99.90
65404;DHT22;52014;52.088;5.096;2023-02-27T08:23:31;3.20;99.90
65404;DHT22;52014;52.088;5.096;2023-02-27T08:25:58;3.30;99.90
65404;DHT22;52014;52.088;5.096;2023-02-27T08:28:25;4.20;99.90
65404;DHT22;52014;52.088;5.096;2023-02-27T08:30:52;5.50;99.90
65404;DHT22;52014;52.088;5.096;2023-02-27T08:33:17;5.40;99.90
65404;DHT22;52014;52.088;5.096;2023-02-27T08:35:43;5.60;99.90
65404;DHT22;52014;52.088;5.096;2023-02-27T08:38:08;6.50;99.90
65404;DHT22;52014;52.088;5.096;2023-02-27T08:40:33;6.40;99.90
65404;DHT22;52014;52.088;5.096;2023-02-27T08:42:59;6.00;99.90
65404;DHT22;52014;52.088;5.096;2023-02-27T08:45:25;6.50;99.90
65404;DHT22;52014;52.088;5.096;2023-02-27T08:47:51;6.60;99.90
65404;DHT22;52014;52.088;5.096;2023-02-27T08:50:16;5.90;99.90
65404;DHT22;52014;52.088;5.096;2023-02-27T08:52:42;5.00;99.90
65404;DHT22;52014;52.088;5.096;2023-02-27T08:55:07;5.30;99.90
65404;DHT22;52014;52.088;5.096;2023-02-27T08:57:33;5.60;99.90
65404;DHT22;52014;52.088;5.096;2023-02-27T08:59:58;5.30;99.90
65404;DHT22;52014;52.088;5.096;2023-02-27T09:02:24;5.10;99.90
65404;DHT22;52014;52.088;5.096;2023-02-27T09:04:51;5.60;99.90
65404;DHT22;52014;52.088;5.096;2023-02-27T09:07:16;6.10;99.90
65404;DHT22;52014;52.088;5.096;2023-02-27T09:09:42;6.10;99.90
65404;DHT22;52014;52.088;5.096;2023-02-27T09:12:07;5.50;99.90
65404;DHT22;52014;52.088;5.096;2023-02-27T09:14:33;5.50;99.90
65404;DHT22;52014;52.088;5.096;2023-02-27T09:16:58;5.90;99.90
65404;DHT22;52014;52.088;5.096;2023-02-27T09:19:24;6.10;99.90
65404;DHT22;52014;52.088;5.096;2023-02-27T09:21:49;6.10;99.90
65404;DHT22;52014;52.088;5.096;2023-02-27T09:24:15;5.80;99.90
65404;DHT22;52014;52.088;5.096;2023-02-27T09:26:40;5.70;99.90
65404;DHT22;52014;52.088;5.096;2023-02-27T09:29:05;5.80;99.90
65404;DHT22;52014;52.088;5.096;2023-02-27T09:31:31;5.80;99.90
65404;DHT22;52014;52.088;5.096;2023-02-27T09:33:56;5.50;99.90
65404;DHT22;52014;52.088;5.096;2023-02-27T09:36:22;5.10;99.90
65404;DHT22;52014;52.088;5.096;2023-02-27T09:38:48;5.00;99.90
65404;DHT22;52014;52.088;5.096;2023-02-27T09:41:23;4.90;99.90
65404;DHT22;52014;52.088;5.096;2023-02-27T09:43:52;4.80;99.90
65404;DHT22;52014;52.088;5.096;2023-02-27T09:46:18;4.80;99.90
65404;DHT22;52014;52.088;5.096;2023-02-27T09:48:52;4.80;99.90
65404;DHT22;52014;52.088;5.096;2023-02-27T09:51:18;4.90;99.90
65404;DHT22;52014;52.088;5.096;2023-02-27T09:53:45;4.90;99.90
65404;DHT22;52014;52.088;5.096;2023-02-27T09:56:15;4.90;99.90
65404;DHT22;52014;52.088;5.096;2023-02-27T09:58:57;4.90;99.90
65404;DHT22;52014;52.088;5.096;2023-02-27T10:01:29;4.90;99.90
65404;DHT22;52014;52.088;5.096;2023-02-27T10:09:16;5.10;99.90
65404;DHT22;52014;52.088;5.096;2023-02-27T10:16:47;5.20;99.90
65404;DHT22;52014;52.088;5.096;2023-02-27T10:19:16;5.20;99.90
65404;DHT22;52014;52.088;5.096;2023-02-27T10:21:45;5.20;99.90
65404;DHT22;52014;52.088;5.096;2023-02-27T10:26:45;5.30;99.90
65404;DHT22;52014;52.088;5.096;2023-02-27T10:29:16;5.30;99.90
65404;DHT22;52014;52.088;5.096;2023-02-27T10:31:43;5.30;99.90
65404;DHT22;52014;52.088;5.096;2023-02-27T10:34:11;5.30;99.90
65404;DHT22;52014;52.088;5.096;2023-02-27T10:36:39;5.30;99.90
65404;DHT22;52014;52.088;5.096;2023-02-27T10:39:05;5.40;99.90
65404;DHT22;52014;52.088;5.096;2023-02-27T10:41:31;5.30;99.90
65404;DHT22;52014;52.088;5.096;2023-02-27T10:43:57;5.40;99.90
65404;DHT22;52014;52.088;5.096;2023-02-27T10:46:25;5.30;99.90
65404;DHT22;52014;52.088;5.096;2023-02-27T10:48:51;5.30;99.90
65404;DHT22;52014;52.088;5.096;2023-02-27T10:53:48;5.20;99.90
65404;DHT22;52014;52.088;5.096;2023-02-27T10:56:34;5.30;99.90
65404;DHT22;52014;52.088;5.096;2023-02-27T10:59:03;5.40;99.90
65404;DHT22;52014;52.088;5.096;2023-02-27T11:01:42;5.40;99.90
65404;DHT22;52014;52.088;5.096;2023-02-27T11:04:09;5.30;99.90
65404;DHT22;52014;52.088;5.096;2023-02-27T11:06:35;5.20;99.90
65404;DHT22;52014;52.088;5.096;2023-02-27T11:11:45;5.20;99.90
65404;DHT22;52014;52.088;5.096;2023-02-27T11:17:08;5.20;99.90
65404;DHT22;52014;52.088;5.096;2023-02-27T11:19:44;5.20;99.90
65404;DHT22;52014;52.088;5.096;2023-02-27T11:22:30;5.20;99.90
65404;DHT22;52014;52.088;5.096;2023-02-27T11:27:39;5.30;99.90
65404;DHT22;52014;52.088;5.096;2023-02-27T11:30:08;5.50;99.90
65404;DHT22;52014;52.088;5.096;2023-02-27T11:32:45;5.40;99.90
65404;DHT22;52014;52.088;5.096;2023-02-27T11:35:22;5.40;99.90
65404;DHT22;52014;52.088;5.096;2023-02-27T11:37:48;5.40;99.90
65404;DHT22;52014;52.088;5.096;2023-02-27T11:40:15;5.40;99.90
65404;DHT22;52014;52.088;5.096;2023-02-27T11:42:47;5.40;99.90
65404;DHT22;52014;52.088;5.096;2023-02-27T11:47:45;5.60;99.90
65404;DHT22;52014;52.088;5.096;2023-02-27T11:53:02;5.60;99.90
65404;DHT22;52014;52.088;5.096;2023-02-27T11:55:33;5.60;99.90
65404;DHT22;52014;52.088;5.096;2023-02-27T11:58:18;5.70;99.90
65404;DHT22;52014;52.088;5.096;2023-02-27T12:00:52;5.70;99.90
65404;DHT22;52014;52.088;5.096;2023-02-27T12:03:34;5.70;99.90
65404;DHT22;52014;52.088;5.096;2023-02-27T12:06:05;5.80;99.90
65404;DHT22;52014;52.088;5.096;2023-02-27T12:08:37;5.70;99.90
65404;DHT22;52014;52.088;5.096;2023-02-27T12:11:12;5.70;99.90
65404;DHT22;52014;52.088;5.096;2023-02-27T12:13:41;5.80;99.90
65404;DHT22;52014;52.088;5.096;2023-02-27T12:19:06;5.80;99.90
65404;DHT22;52014;52.088;5.096;2023-02-27T12:21:45;5.80;99.90
65404;DHT22;52014;52.088;5.096;2023-02-27T12:26:38;5.80;99.90
65404;DHT22;52014;52.088;5.096;2023-02-27T12:31:48;6.00;99.90
65404;DHT22;52014;52.088;5.096;2023-02-27T12:34:17;6.10;99.90
65404;DHT22;52014;52.088;5.096;2023-02-27T12:36:44;6.10;99.90
65404;DHT22;52014;52.088;5.096;2023-02-27T12:39:14;6.20;99.90
65404;DHT22;52014;52.088;5.096;2023-02-27T12:41:42;6.10;99.90
65404;DHT22;52014;52.088;5.096;2023-02-27T13:04:59;6.30;99.90
65404;DHT22;52014;52.088;5.096;2023-02-27T13:07:32;6.40;99.90
65404;DHT22;52014;52.088;5.096;2023-02-27T13:10:07;6.30;99.90
65404;DHT22;52014;52.088;5.096;2023-02-27T13:12:38;6.40;99.90
65404;DHT22;52014;52.088;5.096;2023-02-27T13:15:22;6.40;99.90
65404;DHT22;52014;52.088;5.096;2023-02-27T13:17:52;6.20;99.90
65404;DHT22;52014;52.088;5.096;2023-02-27T13:23:17;6.20;99.90
65404;DHT22;52014;52.088;5.096;2023-02-27T13:25:47;6.50;99.90
65404;DHT22;52014;52.088;5.096;2023-02-27T13:28:17;6.50;99.90
65404;DHT22;52014;52.088;5.096;2023-02-27T13:30:44;6.50;99.90
65404;DHT22;52014;52.088;5.096;2023-02-27T13:33:21;6.50;99.90
65404;DHT22;52014;52.088;5.096;2023-02-27T13:40:55;6.50;99.90
65404;DHT22;52014;52.088;5.096;2023-02-27T13:43:28;6.60;99.90
65404;DHT22;52014;52.088;5.096;2023-02-27T13:45:55;6.70;99.90
65404;DHT22;52014;52.088;5.096;2023-02-27T13:48:34;6.90;99.90
65404;DHT22;52014;52.088;5.096;2023-02-27T13:51:00;6.90;99.90
65404;DHT22;52014;52.088;5.096;2023-02-27T13:53:26;6.90;99.90
65404;DHT22;52014;52.088;5.096;2023-02-27T13:56:16;7.00;99.90
65404;DHT22;52014;52.088;5.096;2023-02-27T13:58:40;7.10;99.90
65404;DHT22;52014;52.088;5.096;2023-02-27T14:01:13;7.00;99.90
65404;DHT22;52014;52.088;5.096;2023-02-27T14:03:39;6.90;99.90
65404;DHT22;52014;52.088;5.096;2023-02-27T14:06:05;6.80;99.90
65404;DHT22;52014;52.088;5.096;2023-02-27T14:09:04;6.70;99.90
65404;DHT22;52014;52.088;5.096;2023-02-27T14:11:26;6.90;99.90
65404;DHT22;52014;52.088;5.096;2023-02-27T14:21:53;7.00;99.90
65404;DHT22;52014;52.088;5.096;2023-02-27T14:26:48;6.90;99.90
65404;DHT22;52014;52.088;5.096;2023-02-27T14:29:24;6.90;99.90
65404;DHT22;52014;52.088;5.096;2023-02-27T14:31:55;6.90;99.90
65404;DHT22;52014;52.088;5.096;2023-02-27T14:34:21;6.90;99.90
65404;DHT22;52014;52.088;5.096;2023-02-27T14:36:48;7.00;99.90
65404;DHT22;52014;52.088;5.096;2023-02-27T14:39:23;6.90;99.90
65404;DHT22;52014;52.088;5.096;2023-02-27T14:44:28;6.70;99.90
65404;DHT22;52014;52.088;5.096;2023-02-27T14:47:00;6.70;99.90
65404;DHT22;52014;52.088;5.096;2023-02-27T14:49:27;6.60;99.90
65404;DHT22;52014;52.088;5.096;2023-02-27T14:51:53;6.50;99.90
65404;DHT22;52014;52.088;5.096;2023-02-27T14:54:20;6.50;99.90
65404;DHT22;52014;52.088;5.096;2023-02-27T14:56:53;6.60;99.90
65404;DHT22;52014;52.088;5.096;2023-02-27T14:59:20;6.70;99.90
65404;DHT22;52014;52.088;5.096;2023-02-27T15:01:46;6.70;99.90
65404;DHT22;52014;52.088;5.096;2023-02-27T15:04:15;6.80;99.90
65404;DHT22;52014;52.088;5.096;2023-02-27T15:06:42;6.80;99.90
65404;DHT22;52014;52.088;5.096;2023-02-27T15:09:11;6.80;99.90
65404;DHT22;52014;52.088;5.096;2023-02-27T15:11:39;6.70;99.90
65404;DHT22;52014;52.088;5.096;2023-02-27T15:14:04;6.50;99.90
65404;DHT22;52014;52.088;5.096;2023-02-27T15:16:39;6.60;99.90
65404;DHT22;52014;52.088;5.096;2023-02-27T15:21:42;6.50;99.90
65404;DHT22;52014;52.088;5.096;2023-02-27T15:24:28;6.60;99.90
65404;DHT22;52014;52.088;5.096;2023-02-27T15:26:58;6.60;99.90
65404;DHT22;52014;52.088;5.096;2023-02-27T15:29:25;6.60;99.90
65404;DHT22;52014;52.088;5.096;2023-02-27T15:31:52;6.60;99.90
65404;DHT22;52014;52.088;5.096;2023-02-27T15:34:18;6.70;99.90
65404;DHT22;52014;52.088;5.096;2023-02-27T15:36:45;6.70;99.90
65404;DHT22;52014;52.088;5.096;2023-02-27T15:41:36;6.60;99.90
65404;DHT22;52014;52.088;5.096;2023-02-27T15:44:02;6.60;99.90
65404;DHT22;52014;52.088;5.096;2023-02-27T15:46:28;6.60;99.90
65404;DHT22;52014;52.088;5.096;2023-02-27T15:48:54;6.50;99.90
65404;DHT22;52014;52.088;5.096;2023-02-27T15:51:19;6.50;99.90
65404;DHT22;52014;52.088;5.096;2023-02-27T15:53:48;6.50;99.90
65404;DHT22;52014;52.088;5.096;2023-02-27T15:56:14;6.50;99.90
65404;DHT22;52014;52.088;5.096;2023-02-27T15:58:46;6.40;99.90
65404;DHT22;52014;52.088;5.096;2023-02-27T16:03:40;6.40;99.90
65404;DHT22;52014;52.088;5.096;2023-02-27T16:06:09;6.40;99.90
65404;DHT22;52014;52.088;5.096;2023-02-27T16:08:36;6.30;99.90
65404;DHT22;52014;52.088;5.096;2023-02-27T16:11:16;6.30;99.90
65404;DHT22;52014;52.088;5.096;2023-02-27T16:13:41;6.30;99.90
65404;DHT22;52014;52.088;5.096;2023-02-27T16:18:57;6.20;99.90
65404;DHT22;52014;52.088;5.096;2023-02-27T16:21:26;6.20;99.90
65404;DHT22;52014;52.088;5.096;2023-02-27T16:23:53;6.20;99.90
65404;DHT22;52014;52.088;5.096;2023-02-27T16:33:58;6.10;99.90
65404;DHT22;52014;52.088;5.096;2023-02-27T16:36:28;6.10;99.90
65404;DHT22;52014;52.088;5.096;2023-02-27T16:38:54;6.10;99.90
65404;DHT22;52014;52.088;5.096;2023-02-27T16:41:20;6.10;99.90
65404;DHT22;52014;52.088;5.096;2023-02-27T16:43:46;6.00;99.90
65404;DHT22;52014;52.088;5.096;2023-02-27T16:46:12;6.00;99.90
65404;DHT22;52014;52.088;5.096;2023-02-27T16:48:44;6.00;99.90
65404;DHT22;52014;52.088;5.096;2023-02-27T16:51:14;6.00;99.90
65404;DHT22;52014;52.088;5.096;2023-02-27T16:53:39;5.90;99.90
65404;DHT22;52014;52.088;5.096;2023-02-27T16:56:05;5.90;99.90
65404;DHT22;52014;52.088;5.096;2023-02-27T16:58:30;5.90;99.90
65404;DHT22;52014;52.088;5.096;2023-02-27T17:00:56;5.90;99.90
65404;DHT22;52014;52.088;5.096;2023-02-27T17:03:21;5.80;99.90
65404;DHT22;52014;52.088;5.096;2023-02-27T17:05:47;5.80;99.90
65404;DHT22;52014;52.088;5.096;2023-02-27T17:08:13;5.80;99.90
65404;DHT22;52014;52.088;5.096;2023-02-27T17:10:38;5.70;99.90
65404;DHT22;52014;52.088;5.096;2023-02-27T17:13:04;5.80;99.90
65404;DHT22;52014;52.088;5.096;2023-02-27T17:15:29;5.70;99.90
65404;DHT22;52014;52.088;5.096;2023-02-27T17:17:54;5.70;99.90
65404;DHT22;52014;52.088;5.096;2023-02-27T17:20:20;5.70;99.90
65404;DHT22;52014;52.088;5.096;2023-02-27T17:22:45;5.60;99.90
65404;DHT22;52014;52.088;5.096;2023-02-27T17:25:11;5.60;99.90
65404;DHT22;52014;52.088;5.096;2023-02-27T17:27:37;5.60;99.90
65404;DHT22;52014;52.088;5.096;2023-02-27T17:30:03;5.60;99.90
65404;DHT22;52014;52.088;5.096;2023-02-27T17:32:29;5.60;99.90
65404;DHT22;52014;52.088;5.096;2023-02-27T17:34:55;5.50;99.90
65404;DHT22;52014;52.088;5.096;2023-02-27T17:37:20;5.50;99.90
65404;DHT22;52014;52.088;5.096;2023-02-27T17:39:46;5.40;99.90
65404;DHT22;52014;52.088;5.096;2023-02-27T17:42:12;5.40;99.90
65404;DHT22;52014;52.088;5.096;2023-02-27T17:44:41;5.40;99.90
65404;DHT22;52014;52.088;5.096;2023-02-27T17:47:06;5.40;99.90
65404;DHT22;52014;52.088;5.096;2023-02-27T17:49:32;5.40;99.90
65404;DHT22;52014;52.088;5.096;2023-02-27T17:51:58;5.40;99.90
65404;DHT22;52014;52.088;5.096;2023-02-27T17:54:25;5.30;99.90
65404;DHT22;52014;52.088;5.096;2023-02-27T17:56:50;5.30;99.90
65404;DHT22;52014;52.088;5.096;2023-02-27T17:59:16;5.30;99.90
65404;DHT22;52014;52.088;5.096;2023-02-27T18:01:41;5.30;99.90
65404;DHT22;52014;52.088;5.096;2023-02-27T18:04:07;5.30;99.90
65404;DHT22;52014;52.088;5.096;2023-02-27T18:06:35;5.30;99.90
65404;DHT22;52014;52.088;5.096;2023-02-27T18:09:01;5.20;99.90
65404;DHT22;52014;52.088;5.096;2023-02-27T18:11:26;5.20;99.90
65404;DHT22;52014;52.088;5.096;2023-02-27T18:13:52;5.20;99.90
65404;DHT22;52014;52.088;5.096;2023-02-27T18:16:18;5.20;99.90
65404;DHT22;52014;52.088;5.096;2023-02-27T18:18:46;5.10;99.90
65404;DHT22;52014;52.088;5.096;2023-02-27T18:21:13;5.10;99.90
65404;DHT22;52014;52.088;5.096;2023-02-27T18:23:38;5.10;99.90
65404;DHT22;52014;52.088;5.096;2023-02-27T18:26:05;5.10;99.90
65404;DHT22;52014;52.088;5.096;2023-02-27T18:28:31;5.10;99.90
65404;DHT22;52014;52.088;5.096;2023-02-27T18:30:56;5.00;99.90